sensor_id;sensor_type;location;lat;lon;timestamp;temperature;humidity
6114;DHT22;3087;48.392;10.836;2023-02-28T00:00:27;1.30;99.90
6114;DHT22;3087;48.392;10.836;2023-02-28T00:02:53;1.50;99.90
6114;DHT22;3087;48.392;10.836;2023-02-28T00:05:20;1.30;99.90
6114;DHT22;3087;48.392;10.836;2023-02-28T00:07:47;1.30;99.90
6114;DHT22;3087;48.392;10.836;2023-02-28T00:10:17;1.30;99.90
6114;DHT22;3087;48.392;10.836;2023-02-28T00:12:47;1.30;99.90
6114;DHT22;3087;48.392;10.836;2023-02-28T00:15:13;1.30;99.90
6114;DHT22;3087;48.392;10.836;2023-02-28T00:17:39;1.30;99.90
6114;DHT22;3087;48.392;10.836;2023-02-28T00:20:06;1.30;99.90
6114;DHT22;3087;48.392;10.836;2023-02-28T00:22:34;1.30;99.90
6114;DHT22;3087;48.392;10.836;2023-02-28T00:24:59;1.20;99.90
6114;DHT22;3087;48.392;10.836;2023-02-28T00:27:25;1.10;99.90
6114;DHT22;3087;48.392;10.836;2023-02-28T00:29:51;1.10;99.90
6114;DHT22;3087;48.392;10.836;2023-02-28T00:32:16;1.00;99.90
6114;DHT22;3087;48.392;10.836;2023-02-28T00:34:44;1.00;99.90
6114;DHT22;3087;48.392;10.836;2023-02-28T00:37:10;1.00;99.90
6114;DHT22;3087;48.392;10.836;2023-02-28T00:39:38;1.00;99.90
6114;DHT22;3087;48.392;10.836;2023-02-28T00:42:04;1.00;99.90
6114;DHT22;3087;48.392;10.836;2023-02-28T00:44:30;0.90;99.90
6114;DHT22;3087;48.392;10.836;2023-02-28T00:46:57;0.90;99.90
6114;DHT22;3087;48.392;10.836;2023-02-28T00:49:23;0.90;99.90
6114;DHT22;3087;48.392;10.836;2023-02-28T00:51:49;1.10;99.90
6114;DHT22;3087;48.392;10.836;2023-02-28T00:54:15;0.90;99.90
6114;DHT22;3087;48.392;10.836;2023-02-28T00:56:41;0.90;99.90
6114;DHT22;3087;48.392;10.836;2023-02-28T00:59:08;1.20;99.90
6114;DHT22;3087;48.392;10.836;2023-02-28T01:01:33;0.80;99.90
6114;DHT22;3087;48.392;10.836;2023-02-28T01:03:59;0.80;99.90
6114;DHT22;3087;48.392;10.836;2023-02-28T01:06:24;0.80;99.90
6114;DHT22;3087;48.392;10.836;2023-02-28T01:08:50;0.80;99.90
6114;DHT22;3087;48.392;10.836;2023-02-28T01:11:17;3.20;99.90
6114;DHT22;3087;48.392;10.836;2023-02-28T01:13:44;0.90;99.90
6114;DHT22;3087;48.392;10.836;2023-02-28T01:16:12;0.90;99.90
6114;DHT22;3087;48.392;10.836;2023-02-28T01:18:38;0.80;99.90
6114;DHT22;3087;48.392;10.836;2023-02-28T01:21:09;0.70;99.90
6114;DHT22;3087;48.392;10.836;2023-02-28T01:23:34;0.70;99.90
6114;DHT22;3087;48.392;10.836;2023-02-28T01:26:18;0.70;99.90
6114;DHT22;3087;48.392;10.836;2023-02-28T01:28:45;0.70;99.90
6114;DHT22;3087;48.392;10.836;2023-02-28T01:31:11;0.70;99.90
6114;DHT22;3087;48.392;10.836;2023-02-28T01:33:38;0.70;99.90
6114;DHT22;3087;48.392;10.836;2023-02-28T01:36:05;0.70;99.90
6114;DHT22;3087;48.392;10.836;2023-02-28T01:38:31;2.30;99.90
6114;DHT22;3087;48.392;10.836;2023-02-28T01:40:57;0.70;99.90
6114;DHT22;3087;48.392;10.836;2023-02-28T01:43:27;0.70;99.90
6114;DHT22;3087;48.392;10.836;2023-02-28T01:45:54;0.70;99.90
6114;DHT22;3087;48.392;10.836;2023-02-28T01:48:26;0.80;99.90
6114;DHT22;3087;48.392;10.836;2023-02-28T01:50:54;0.80;99.90
6114;DHT22;3087;48.392;10.836;2023-02-28T01:53:30;0.70;99.90
6114;DHT22;3087;48.392;10.836;2023-02-28T01:55:57;0.70;99.90
6114;DHT22;3087;48.392;10.836;2023-02-28T01:58:23;0.70;99.90
6114;DHT22;3087;48.392;10.836;2023-02-28T02:00:49;0.70;99.90
6114;DHT22;3087;48.392;10.836;2023-02-28T02:03:17;0.70;99.90
6114;DHT22;3087;48.392;10.836;2023-02-28T02:05:46;0.70;99.90
6114;DHT22;3087;48.392;10.836;2023-02-28T02:08:25;0.70;99.90
6114;DHT22;3087;48.392;10.836;2023-02-28T02:10:54;0.70;99.90
6114;DHT22;3087;48.392;10.836;2023-02-28T02:16:29;0.70;99.90
6114;DHT22;3087;48.392;10.836;2023-02-28T02:24:21;0.50;99.90
6114;DHT22;3087;48.392;10.836;2023-02-28T02:29:40;0.50;99.90
6114;DHT22;3087;48.392;10.836;2023-02-28T02:32:10;0.50;99.90
6114;DHT22;3087;48.392;10.836;2023-02-28T02:34:56;0.50;99.90
6114;DHT22;3087;48.392;10.836;2023-02-28T02:42:31;0.60;99.90
6114;DHT22;3087;48.392;10.836;2023-02-28T02:45:09;0.40;99.90
6114;DHT22;3087;48.392;10.836;2023-02-28T02:47:37;0.40;99.90
6114;DHT22;3087;48.392;10.836;2023-02-28T02:50:08;0.40;99.90
6114;DHT22;3087;48.392;10.836;2023-02-28T02:52:44;0.40;99.90
6114;DHT22;3087;48.392;10.836;2023-02-28T02:55:11;0.50;99.90
6114;DHT22;3087;48.392;10.836;2023-02-28T02:58:12;0.50;99.90
6114;DHT22;3087;48.392;10.836;2023-02-28T03:00:42;0.40;99.90
6114;DHT22;3087;48.392;10.836;2023-02-28T03:03:10;0.40;99.90
6114;DHT22;3087;48.392;10.836;2023-02-28T03:05:44;0.40;99.90
6114;DHT22;3087;48.392;10.836;2023-02-28T03:08:11;0.40;99.90
6114;DHT22;3087;48.392;10.836;2023-02-28T03:16:22;0.40;99.90
6114;DHT22;3087;48.392;10.836;2023-02-28T03:24:34;0.40;99.90
6114;DHT22;3087;48.392;10.836;2023-02-28T03:27:29;0.40;99.90
6114;DHT22;3087;48.392;10.836;2023-02-28T03:30:03;0.40;99.90
6114;DHT22;3087;48.392;10.836;2023-02-28T03:32:38;0.40;99.90
6114;DHT22;3087;48.392;10.836;2023-02-28T03:35:11;0.40;99.90
6114;DHT22;3087;48.392;10.836;2023-02-28T03:37:42;0.50;99.90
6114;DHT22;3087;48.392;10.836;2023-02-28T03:40:13;0.50;99.90
6114;DHT22;3087;48.392;10.836;2023-02-28T03:42:41;0.50;99.90
6114;DHT22;3087;48.392;10.836;2023-02-28T03:50:27;0.50;99.90
6114;DHT22;3087;48.392;10.836;2023-02-28T03:53:02;0.50;99.90
6114;DHT22;3087;48.392;10.836;2023-02-28T03:55:35;0.50;99.90
6114;DHT22;3087;48.392;10.836;2023-02-28T03:58:11;0.70;99.90
6114;DHT22;3087;48.392;10.836;2023-02-28T04:00:42;0.50;99.90
6114;DHT22;3087;48.392;10.836;2023-02-28T04:03:08;0.50;99.90
6114;DHT22;3087;48.392;10.836;2023-02-28T04:05:45;0.40;99.90
6114;DHT22;3087;48.392;10.836;2023-02-28T04:08:13;0.50;99.90
6114;DHT22;3087;48.392;10.836;2023-02-28T04:10:38;0.50;99.90
6114;DHT22;3087;48.392;10.836;2023-02-28T04:13:04;0.50;99.90
6114;DHT22;3087;48.392;10.836;2023-02-28T04:15:30;0.50;99.90
6114;DHT22;3087;48.392;10.836;2023-02-28T04:17:57;0.40;99.90
6114;DHT22;3087;48.392;10.836;2023-02-28T04:20:22;0.50;99.90
6114;DHT22;3087;48.392;10.836;2023-02-28T04:22:48;0.40;99.90
6114;DHT22;3087;48.392;10.836;2023-02-28T04:25:14;0.40;99.90
6114;DHT22;3087;48.392;10.836;2023-02-28T04:27:39;0.40;99.90
6114;DHT22;3087;48.392;10.836;2023-02-28T04:30:06;0.40;99.90
6114;DHT22;3087;48.392;10.836;2023-02-28T04:32:31;0.40;99.90
6114;DHT22;3087;48.392;10.836;2023-02-28T04:34:57;0.50;99.90
6114;DHT22;3087;48.392;10.836;2023-02-28T04:37:22;0.40;99.90
6114;DHT22;3087;48.392;10.836;2023-02-28T04:39:53;0.40;99.90
6114;DHT22;3087;48.392;10.836;2023-02-28T04:42:18;0.30;99.90
6114;DHT22;3087;48.392;10.836;2023-02-28T04:44:44;0.30;99.90
6114;DHT22;3087;48.392;10.836;2023-02-28T04:47:10;0.40;99.90
6114;DHT22;3087;48.392;10.836;2023-02-28T04:49:35;0.30;99.90
6114;DHT22;3087;48.392;10.836;2023-02-28T04:52:01;0.30;99.90
6114;DHT22;3087;48.392;10.836;2023-02-28T04:54:27;0.40;99.90
6114;DHT22;3087;48.392;10.836;2023-02-28T04:56:53;0.40;99.90
6114;DHT22;3087;48.392;10.836;2023-02-28T04:59:20;0.40;99.90
6114;DHT22;3087;48.392;10.836;2023-02-28T05:01:47;0.30;99.90
6114;DHT22;3087;48.392;10.836;2023-02-28T05:04:13;0.30;99.90
6114;DHT22;3087;48.392;10.836;2023-02-28T05:06:39;0.30;99.90
6114;DHT22;3087;48.392;10.836;2023-02-28T05:09:04;0.30;99.90
6114;DHT22;3087;48.392;10.836;2023-02-28T05:11:32;0.20;99.90
6114;DHT22;3087;48.392;10.836;2023-02-28T05:14:02;0.20;99.90
6114;DHT22;3087;48.392;10.836;2023-02-28T05:16:29;0.20;99.90
6114;DHT22;3087;48.392;10.836;2023-02-28T05:18:55;0.10;99.90
6114;DHT22;3087;48.392;10.836;2023-02-28T05:21:51;0.10;99.90
6114;DHT22;3087;48.392;10.836;2023-02-28T05:24:17;0.10;99.90
6114;DHT22;3087;48.392;10.836;2023-02-28T05:26:48;0.00;99.90
6114;DHT22;3087;48.392;10.836;2023-02-28T05:29:14;0.00;99.90
6114;DHT22;3087;48.392;10.836;2023-02-28T05:31:39;0.00;99.90
6114;DHT22;3087;48.392;10.836;2023-02-28T05:34:05;0.10;99.90
6114;DHT22;3087;48.392;10.836;2023-02-28T05:36:31;0.00;99.90
6114;DHT22;3087;48.392;10.836;2023-02-28T05:38:57;0.10;99.90
6114;DHT22;3087;48.392;10.836;2023-02-28T05:41:22;0.10;99.90
6114;DHT22;3087;48.392;10.836;2023-02-28T05:43:48;0.10;99.90
6114;DHT22;3087;48.392;10.836;2023-02-28T05:46:15;0.10;99.90
6114;DHT22;3087;48.392;10.836;2023-02-28T05:48:41;0.10;99.90
6114;DHT22;3087;48.392;10.836;2023-02-28T05:51:08;0.10;99.90
6114;DHT22;3087;48.392;10.836;2023-02-28T05:53:34;0.10;99.90
6114;DHT22;3087;48.392;10.836;2023-02-28T05:56:00;0.10;99.90
6114;DHT22;3087;48.392;10.836;2023-02-28T05:58:26;0.10;99.90
6114;DHT22;3087;48.392;10.836;2023-02-28T06:00:56;0.00;99.90
6114;DHT22;3087;48.392;10.836;2023-02-28T06:03:22;0.00;99.90
6114;DHT22;3087;48.392;10.836;2023-02-28T06:05:48;0.00;99.90
6114;DHT22;3087;48.392;10.836;2023-02-28T06:08:13;0.10;99.90
6114;DHT22;3087;48.392;10.836;2023-02-28T06:10:39;0.00;99.90
6114;DHT22;3087;48.392;10.836;2023-02-28T06:13:05;0.20;99.90
6114;DHT22;3087;48.392;10.836;2023-02-28T06:15:31;0.20;99.90
6114;DHT22;3087;48.392;10.836;2023-02-28T06:17:57;0.20;99.90
6114;DHT22;3087;48.392;10.836;2023-02-28T06:20:24;0.20;99.90
6114;DHT22;3087;48.392;10.836;2023-02-28T06:22:51;0.20;99.90
6114;DHT22;3087;48.392;10.836;2023-02-28T06:25:17;0.20;99.90
6114;DHT22;3087;48.392;10.836;2023-02-28T06:27:43;0.30;99.90
6114;DHT22;3087;48.392;10.836;2023-02-28T06:30:10;0.30;99.90
6114;DHT22;3087;48.392;10.836;2023-02-28T06:32:36;0.30;99.90
6114;DHT22;3087;48.392;10.836;2023-02-28T06:35:02;0.30;99.90
6114;DHT22;3087;48.392;10.836;2023-02-28T06:37:28;0.30;99.90
6114;DHT22;3087;48.392;10.836;2023-02-28T06:39:54;0.30;99.90
6114;DHT22;3087;48.392;10.836;2023-02-28T06:42:22;0.40;99.90
6114;DHT22;3087;48.392;10.836;2023-02-28T06:44:50;0.20;99.90
6114;DHT22;3087;48.392;10.836;2023-02-28T06:47:16;0.30;99.90
6114;DHT22;3087;48.392;10.836;2023-02-28T06:49:42;0.30;99.90
6114;DHT22;3087;48.392;10.836;2023-02-28T06:52:07;0.40;99.90
6114;DHT22;3087;48.392;10.836;2023-02-28T06:54:34;-2.20;99.90
6114;DHT22;3087;48.392;10.836;2023-02-28T06:56:59;0.40;99.90
6114;DHT22;3087;48.392;10.836;2023-02-28T06:59:25;0.40;99.90
6114;DHT22;3087;48.392;10.836;2023-02-28T07:01:50;0.40;99.90
6114;DHT22;3087;48.392;10.836;2023-02-28T07:04:16;3.20;99.90
6114;DHT22;3087;48.392;10.836;2023-02-28T07:06:42;0.50;99.90
6114;DHT22;3087;48.392;10.836;2023-02-28T07:09:07;0.50;99.90
6114;DHT22;3087;48.392;10.836;2023-02-28T07:11:33;0.60;99.90
6114;DHT22;3087;48.392;10.836;2023-02-28T07:13:59;0.50;99.90
6114;DHT22;3087;48.392;10.836;2023-02-28T07:16:25;0.50;99.90
6114;DHT22;3087;48.392;10.836;2023-02-28T07:18:53;0.50;99.90
6114;DHT22;3087;48.392;10.836;2023-02-28T07:21:19;0.50;99.90
6114;DHT22;3087;48.392;10.836;2023-02-28T07:23:45;0.40;99.90
6114;DHT22;3087;48.392;10.836;2023-02-28T07:26:12;0.30;99.90
6114;DHT22;3087;48.392;10.836;2023-02-28T07:28:40;0.40;99.90
6114;DHT22;3087;48.392;10.836;2023-02-28T07:31:06;0.40;99.90
6114;DHT22;3087;48.392;10.836;2023-02-28T07:33:33;0.50;99.90
6114;DHT22;3087;48.392;10.836;2023-02-28T07:36:04;0.50;99.90
6114;DHT22;3087;48.392;10.836;2023-02-28T07:38:30;0.60;99.90
6114;DHT22;3087;48.392;10.836;2023-02-28T07:40:56;0.50;99.90
6114;DHT22;3087;48.392;10.836;2023-02-28T07:43:21;0.50;99.90
6114;DHT22;3087;48.392;10.836;2023-02-28T07:45:47;0.60;99.90
6114;DHT22;3087;48.392;10.836;2023-02-28T07:48:13;0.60;99.90
6114;DHT22;3087;48.392;10.836;2023-02-28T07:50:38;0.70;99.90
6114;DHT22;3087;48.392;10.836;2023-02-28T07:53:04;0.70;99.90
6114;DHT22;3087;48.392;10.836;2023-02-28T07:55:29;0.80;99.90
6114;DHT22;3087;48.392;10.836;2023-02-28T07:57:56;0.90;99.90
6114;DHT22;3087;48.392;10.836;2023-02-28T08:00:22;0.90;99.90
6114;DHT22;3087;48.392;10.836;2023-02-28T08:02:48;0.90;99.90
6114;DHT22;3087;48.392;10.836;2023-02-28T08:05:14;0.90;99.90
6114;DHT22;3087;48.392;10.836;2023-02-28T08:07:40;0.90;99.90
6114;DHT22;3087;48.392;10.836;2023-02-28T08:10:06;0.90;99.90
6114;DHT22;3087;48.392;10.836;2023-02-28T08:12:32;0.90;99.90
6114;DHT22;3087;48.392;10.836;2023-02-28T08:14:57;0.80;99.90
6114;DHT22;3087;48.392;10.836;2023-02-28T08:17:23;0.90;99.90
6114;DHT22;3087;48.392;10.836;2023-02-28T08:19:48;1.10;99.90
6114;DHT22;3087;48.392;10.836;2023-02-28T08:22:14;1.10;99.90
6114;DHT22;3087;48.392;10.836;2023-02-28T08:24:41;1.10;99.90
6114;DHT22;3087;48.392;10.836;2023-02-28T08:27:08;0.90;99.90
6114;DHT22;3087;48.392;10.836;2023-02-28T08:29:34;1.00;99.90
6114;DHT22;3087;48.392;10.836;2023-02-28T08:32:01;1.00;99.90
6114;DHT22;3087;48.392;10.836;2023-02-28T08:34:27;1.10;99.90
6114;DHT22;3087;48.392;10.836;2023-02-28T08:36:52;1.10;99.90
6114;DHT22;3087;48.392;10.836;2023-02-28T08:39:18;1.10;99.90
6114;DHT22;3087;48.392;10.836;2023-02-28T08:41:45;1.30;99.90
6114;DHT22;3087;48.392;10.836;2023-02-28T08:44:10;1.40;99.90
6114;DHT22;3087;48.392;10.836;2023-02-28T08:46:36;1.30;99.90
6114;DHT22;3087;48.392;10.836;2023-02-28T08:49:03;1.40;99.90
6114;DHT22;3087;48.392;10.836;2023-02-28T08:51:28;1.50;99.90
6114;DHT22;3087;48.392;10.836;2023-02-28T08:54:00;1.30;99.90
6114;DHT22;3087;48.392;10.836;2023-02-28T08:56:27;1.00;99.90
6114;DHT22;3087;48.392;10.836;2023-02-28T08:58:55;1.10;99.90
6114;DHT22;3087;48.392;10.836;2023-02-28T09:01:24;1.40;99.90
6114;DHT22;3087;48.392;10.836;2023-02-28T09:03:51;3.40;99.90
6114;DHT22;3087;48.392;10.836;2023-02-28T09:06:19;1.50;99.90
6114;DHT22;3087;48.392;10.836;2023-02-28T09:08:45;1.40;99.90
6114;DHT22;3087;48.392;10.836;2023-02-28T09:11:11;1.50;99.90
6114;DHT22;3087;48.392;10.836;2023-02-28T09:13:38;1.60;99.90
6114;DHT22;3087;48.392;10.836;2023-02-28T09:16:06;1.80;99.90
6114;DHT22;3087;48.392;10.836;2023-02-28T09:18:34;2.00;99.90
6114;DHT22;3087;48.392;10.836;2023-02-28T09:21:03;2.10;99.90
6114;DHT22;3087;48.392;10.836;2023-02-28T09:23:29;2.30;99.90
6114;DHT22;3087;48.392;10.836;2023-02-28T09:25:55;2.40;99.90
6114;DHT22;3087;48.392;10.836;2023-02-28T09:28:21;2.60;99.90
6114;DHT22;3087;48.392;10.836;2023-02-28T09:30:49;2.90;99.90
6114;DHT22;3087;48.392;10.836;2023-02-28T09:33:16;3.00;99.90
6114;DHT22;3087;48.392;10.836;2023-02-28T09:35:42;2.90;99.90
6114;DHT22;3087;48.392;10.836;2023-02-28T09:38:09;2.70;99.90
6114;DHT22;3087;48.392;10.836;2023-02-28T09:40:37;3.40;99.90
6114;DHT22;3087;48.392;10.836;2023-02-28T09:43:09;2.90;99.90
6114;DHT22;3087;48.392;10.836;2023-02-28T09:45:39;3.00;99.90
6114;DHT22;3087;48.392;10.836;2023-02-28T09:48:12;3.20;99.90
6114;DHT22;3087;48.392;10.836;2023-02-28T09:53:36;3.30;99.90
6114;DHT22;3087;48.392;10.836;2023-02-28T09:56:28;3.00;99.90
6114;DHT22;3087;48.392;10.836;2023-02-28T10:02:03;2.80;99.90
6114;DHT22;3087;48.392;10.836;2023-02-28T10:04:52;2.80;99.90
6114;DHT22;3087;48.392;10.836;2023-02-28T10:10:27;4.50;99.90
6114;DHT22;3087;48.392;10.836;2023-02-28T10:12:56;4.50;99.90
6114;DHT22;3087;48.392;10.836;2023-02-28T10:15:24;4.80;99.90
6114;DHT22;3087;48.392;10.836;2023-02-28T10:17:54;5.20;99.90
6114;DHT22;3087;48.392;10.836;2023-02-28T10:20:23;5.90;99.90
6114;DHT22;3087;48.392;10.836;2023-02-28T10:26:14;6.90;99.90
6114;DHT22;3087;48.392;10.836;2023-02-28T10:28:39;7.20;99.90
6114;DHT22;3087;48.392;10.836;2023-02-28T10:31:05;7.70;99.90
6114;DHT22;3087;48.392;10.836;2023-02-28T10:33:35;8.20;99.90
6114;DHT22;3087;48.392;10.836;2023-02-28T10:36:02;8.40;99.90
6114;DHT22;3087;48.392;10.836;2023-02-28T10:38:34;7.70;99.80
6114;DHT22;3087;48.392;10.836;2023-02-28T10:41:11;7.90;99.90
6114;DHT22;3087;48.392;10.836;2023-02-28T10:43:40;8.30;99.90
6114;DHT22;3087;48.392;10.836;2023-02-28T10:48:40;8.30;97.90
6114;DHT22;3087;48.392;10.836;2023-02-28T10:51:10;8.60;99.20
6114;DHT22;3087;48.392;10.836;2023-02-28T10:53:49;8.90;98.20
6114;DHT22;3087;48.392;10.836;2023-02-28T10:56:22;9.50;97.50
6114;DHT22;3087;48.392;10.836;2023-02-28T11:07:16;10.60;93.50
6114;DHT22;3087;48.392;10.836;2023-02-28T11:09:45;10.20;93.50
6114;DHT22;3087;48.392;10.836;2023-02-28T11:12:37;9.40;93.40
6114;DHT22;3087;48.392;10.836;2023-02-28T11:15:06;9.40;94.90
6114;DHT22;3087;48.392;10.836;2023-02-28T11:17:44;9.60;94.10
6114;DHT22;3087;48.392;10.836;2023-02-28T11:20:19;9.90;93.60
6114;DHT22;3087;48.392;10.836;2023-02-28T11:22:47;9.60;92.90
6114;DHT22;3087;48.392;10.836;2023-02-28T11:25:34;9.50;92.80
6114;DHT22;3087;48.392;10.836;2023-02-28T11:28:02;9.60;93.30
6114;DHT22;3087;48.392;10.836;2023-02-28T11:30:36;8.80;93.80
6114;DHT22;3087;48.392;10.836;2023-02-28T11:33:30;10.40;92.50
6114;DHT22;3087;48.392;10.836;2023-02-28T11:36:04;10.30;92.70
6114;DHT22;3087;48.392;10.836;2023-02-28T11:38:34;10.80;92.00
6114;DHT22;3087;48.392;10.836;2023-02-28T11:41:21;10.60;91.00
6114;DHT22;3087;48.392;10.836;2023-02-28T11:49:07;9.60;92.90
6114;DHT22;3087;48.392;10.836;2023-02-28T11:52:06;9.60;92.70
6114;DHT22;3087;48.392;10.836;2023-02-28T11:58:12;10.40;91.90
6114;DHT22;3087;48.392;10.836;2023-02-28T12:00:46;10.80;91.00
6114;DHT22;3087;48.392;10.836;2023-02-28T12:03:30;10.10;90.10
6114;DHT22;3087;48.392;10.836;2023-02-28T12:11:19;9.70;93.20
6114;DHT22;3087;48.392;10.836;2023-02-28T12:16:40;10.20;92.30
6114;DHT22;3087;48.392;10.836;2023-02-28T12:19:21;10.40;90.50
6114;DHT22;3087;48.392;10.836;2023-02-28T12:27:44;11.20;90.30
6114;DHT22;3087;48.392;10.836;2023-02-28T12:30:33;11.40;91.70
6114;DHT22;3087;48.392;10.836;2023-02-28T12:33:12;11.90;90.50
6114;DHT22;3087;48.392;10.836;2023-02-28T12:35:56;12.00;87.90
6114;DHT22;3087;48.392;10.836;2023-02-28T12:38:29;12.00;86.70
6114;DHT22;3087;48.392;10.836;2023-02-28T12:41:00;14.10;89.40
6114;DHT22;3087;48.392;10.836;2023-02-28T12:43:32;11.60;86.20
6114;DHT22;3087;48.392;10.836;2023-02-28T12:46:02;11.90;90.30
6114;DHT22;3087;48.392;10.836;2023-02-28T12:48:43;12.40;92.10
6114;DHT22;3087;48.392;10.836;2023-02-28T12:51:10;12.40;85.80
6114;DHT22;3087;48.392;10.836;2023-02-28T12:56:54;12.30;85.60
6114;DHT22;3087;48.392;10.836;2023-02-28T13:05:06;12.40;85.00
6114;DHT22;3087;48.392;10.836;2023-02-28T13:07:49;12.50;85.40
6114;DHT22;3087;48.392;10.836;2023-02-28T13:10:18;13.00;84.50
6114;DHT22;3087;48.392;10.836;2023-02-28T13:12:52;13.10;84.90
6114;DHT22;3087;48.392;10.836;2023-02-28T13:15:27;13.20;85.40
6114;DHT22;3087;48.392;10.836;2023-02-28T13:18:00;12.80;80.80
6114;DHT22;3087;48.392;10.836;2023-02-28T13:20:29;12.40;81.40
6114;DHT22;3087;48.392;10.836;2023-02-28T13:22:58;12.80;84.80
6114;DHT22;3087;48.392;10.836;2023-02-28T13:27:59;12.50;82.90
6114;DHT22;3087;48.392;10.836;2023-02-28T13:36:30;11.30;82.80
6114;DHT22;3087;48.392;10.836;2023-02-28T13:38:57;10.70;81.50
6114;DHT22;3087;48.392;10.836;2023-02-28T13:44:25;9.60;84.00
6114;DHT22;3087;48.392;10.836;2023-02-28T14:00:41;9.10;86.30
6114;DHT22;3087;48.392;10.836;2023-02-28T14:03:23;9.00;87.90
6114;DHT22;3087;48.392;10.836;2023-02-28T14:08:36;9.60;85.20
6114;DHT22;3087;48.392;10.836;2023-02-28T14:11:05;9.80;85.70
6114;DHT22;3087;48.392;10.836;2023-02-28T14:13:46;10.30;86.70
6114;DHT22;3087;48.392;10.836;2023-02-28T14:16:20;10.60;85.10
6114;DHT22;3087;48.392;10.836;2023-02-28T14:18:51;10.40;84.10
6114;DHT22;3087;48.392;10.836;2023-02-28T14:36:03;9.40;86.00
6114;DHT22;3087;48.392;10.836;2023-02-28T14:38:33;9.10;84.70
6114;DHT22;3087;48.392;10.836;2023-02-28T14:41:04;8.70;85.60
6114;DHT22;3087;48.392;10.836;2023-02-28T14:43:32;8.20;87.70
6114;DHT22;3087;48.392;10.836;2023-02-28T14:46:02;8.50;89.60
6114;DHT22;3087;48.392;10.836;2023-02-28T14:48:29;8.50;89.00
6114;DHT22;3087;48.392;10.836;2023-02-28T14:50:57;8.70;87.80
6114;DHT22;3087;48.392;10.836;2023-02-28T14:53:27;7.80;87.30
6114;DHT22;3087;48.392;10.836;2023-02-28T14:55:54;7.80;90.40
6114;DHT22;3087;48.392;10.836;2023-02-28T15:00:49;7.30;90.10
6114;DHT22;3087;48.392;10.836;2023-02-28T15:03:28;7.50;90.00
6114;DHT22;3087;48.392;10.836;2023-02-28T15:05:59;7.30;90.20
6114;DHT22;3087;48.392;10.836;2023-02-28T15:08:26;7.10;89.80
6114;DHT22;3087;48.392;10.836;2023-02-28T15:10:57;7.10;90.30
6114;DHT22;3087;48.392;10.836;2023-02-28T15:13:35;6.70;90.80
6114;DHT22;3087;48.392;10.836;2023-02-28T15:16:04;6.70;90.90
6114;DHT22;3087;48.392;10.836;2023-02-28T15:21:17;6.90;91.60
6114;DHT22;3087;48.392;10.836;2023-02-28T15:23:46;6.90;91.50
6114;DHT22;3087;48.392;10.836;2023-02-28T15:26:19;6.70;91.30
6114;DHT22;3087;48.392;10.836;2023-02-28T15:28:46;6.80;91.30
6114;DHT22;3087;48.392;10.836;2023-02-28T15:33:57;7.00;92.10
6114;DHT22;3087;48.392;10.836;2023-02-28T15:36:29;6.20;92.20
6114;DHT22;3087;48.392;10.836;2023-02-28T15:38:57;6.50;93.10
6114;DHT22;3087;48.392;10.836;2023-02-28T15:41:31;7.20;92.90
6114;DHT22;3087;48.392;10.836;2023-02-28T15:44:26;6.60;92.10
6114;DHT22;3087;48.392;10.836;2023-02-28T15:47:19;6.50;92.30
6114;DHT22;3087;48.392;10.836;2023-02-28T15:49:54;6.40;93.10
6114;DHT22;3087;48.392;10.836;2023-02-28T15:52:41;6.30;92.90
6114;DHT22;3087;48.392;10.836;2023-02-28T15:57:42;6.10;93.40
6114;DHT22;3087;48.392;10.836;2023-02-28T16:00:12;5.90;93.40
6114;DHT22;3087;48.392;10.836;2023-02-28T16:02:39;6.00;94.10
6114;DHT22;3087;48.392;10.836;2023-02-28T16:07:42;5.90;94.20
6114;DHT22;3087;48.392;10.836;2023-02-28T16:10:11;5.80;94.10
6114;DHT22;3087;48.392;10.836;2023-02-28T16:12:38;5.70;94.70
6114;DHT22;3087;48.392;10.836;2023-02-28T16:15:19;5.60;94.80
6114;DHT22;3087;48.392;10.836;2023-02-28T16:17:45;5.50;95.00
6114;DHT22;3087;48.392;10.836;2023-02-28T16:20:32;5.50;95.50
6114;DHT22;3087;48.392;10.836;2023-02-28T16:22:57;5.60;95.70
6114;DHT22;3087;48.392;10.836;2023-02-28T16:25:39;5.60;95.90
6114;DHT22;3087;48.392;10.836;2023-02-28T16:28:23;5.60;95.60
6114;DHT22;3087;48.392;10.836;2023-02-28T16:30:53;5.40;95.80
6114;DHT22;3087;48.392;10.836;2023-02-28T16:33:19;5.30;96.20
6114;DHT22;3087;48.392;10.836;2023-02-28T16:35:44;5.10;96.70
6114;DHT22;3087;48.392;10.836;2023-02-28T16:38:10;5.20;98.70
6114;DHT22;3087;48.392;10.836;2023-02-28T16:40:36;5.20;97.80
6114;DHT22;3087;48.392;10.836;2023-02-28T16:43:05;5.30;97.80
6114;DHT22;3087;48.392;10.836;2023-02-28T16:45:32;7.40;98.40
6114;DHT22;3087;48.392;10.836;2023-02-28T16:47:59;5.30;98.20
6114;DHT22;3087;48.392;10.836;2023-02-28T16:50:27;5.30;97.80
6114;DHT22;3087;48.392;10.836;2023-02-28T16:52:53;5.30;97.60
6114;DHT22;3087;48.392;10.836;2023-02-28T16:55:20;5.70;98.20
6114;DHT22;3087;48.392;10.836;2023-02-28T16:57:57;5.70;98.30
6114;DHT22;3087;48.392;10.836;2023-02-28T17:00:24;5.20;98.30
6114;DHT22;3087;48.392;10.836;2023-02-28T17:02:50;5.10;98.40
6114;DHT22;3087;48.392;10.836;2023-02-28T17:05:16;5.20;98.70
6114;DHT22;3087;48.392;10.836;2023-02-28T17:07:44;5.20;98.60
6114;DHT22;3087;48.392;10.836;2023-02-28T17:10:25;5.20;98.80
6114;DHT22;3087;48.392;10.836;2023-02-28T17:12:51;5.20;98.90
6114;DHT22;3087;48.392;10.836;2023-02-28T17:15:19;5.20;99.20
6114;DHT22;3087;48.392;10.836;2023-02-28T17:17:46;5.30;99.80
6114;DHT22;3087;48.392;10.836;2023-02-28T17:20:20;5.40;99.50
6114;DHT22;3087;48.392;10.836;2023-02-28T17:22:50;5.50;99.40
6114;DHT22;3087;48.392;10.836;2023-02-28T17:25:16;5.50;99.60
6114;DHT22;3087;48.392;10.836;2023-02-28T17:27:42;5.50;99.80
6114;DHT22;3087;48.392;10.836;2023-02-28T17:30:25;5.70;99.90
6114;DHT22;3087;48.392;10.836;2023-02-28T17:32:57;5.40;99.60
6114;DHT22;3087;48.392;10.836;2023-02-28T17:35:23;6.30;99.90
6114;DHT22;3087;48.392;10.836;2023-02-28T17:37:49;5.40;99.90
6114;DHT22;3087;48.392;10.836;2023-02-28T17:40:17;6.00;99.90
6114;DHT22;3087;48.392;10.836;2023-02-28T17:42:43;5.30;99.90
6114;DHT22;3087;48.392;10.836;2023-02-28T17:45:10;5.20;99.90
6114;DHT22;3087;48.392;10.836;2023-02-28T17:47:35;5.10;99.90
6114;DHT22;3087;48.392;10.836;2023-02-28T17:50:01;5.10;99.90
6114;DHT22;3087;48.392;10.836;2023-02-28T17:52:26;5.50;99.90
6114;DHT22;3087;48.392;10.836;2023-02-28T17:54:54;5.20;99.90
6114;DHT22;3087;48.392;10.836;2023-02-28T17:57:20;6.30;99.90
6114;DHT22;3087;48.392;10.836;2023-02-28T17:59:46;7.10;99.90
6114;DHT22;3087;48.392;10.836;2023-02-28T18:02:13;5.10;99.90
6114;DHT22;3087;48.392;10.836;2023-02-28T18:04:39;5.00;99.90
6114;DHT22;3087;48.392;10.836;2023-02-28T18:07:06;5.00;99.90
6114;DHT22;3087;48.392;10.836;2023-02-28T18:09:32;4.40;99.90
6114;DHT22;3087;48.392;10.836;2023-02-28T18:11:57;4.80;99.90
6114;DHT22;3087;48.392;10.836;2023-02-28T18:14:24;4.70;99.90
6114;DHT22;3087;48.392;10.836;2023-02-28T18:16:52;4.60;99.90
6114;DHT22;3087;48.392;10.836;2023-02-28T18:19:19;4.50;99.90
6114;DHT22;3087;48.392;10.836;2023-02-28T18:21:50;4.40;99.90
6114;DHT22;3087;48.392;10.836;2023-02-28T18:24:17;4.40;99.90
6114;DHT22;3087;48.392;10.836;2023-02-28T18:26:43;4.40;99.90
6114;DHT22;3087;48.392;10.836;2023-02-28T18:29:16;4.40;99.90
6114;DHT22;3087;48.392;10.836;2023-02-28T18:31:42;4.40;99.90
6114;DHT22;3087;48.392;10.836;2023-02-28T18:34:07;4.30;99.90
6114;DHT22;3087;48.392;10.836;2023-02-28T18:36:33;4.20;99.90